createdAt,value
2018-12-12T00:00:02.755Z,87.69
2018-12-12T00:01:02.785Z,88.48
2018-12-12T00:02:02.767Z,88.65
2018-12-12T00:03:02.766Z,88.6
2018-12-12T00:04:02.815Z,88.3
2018-12-12T00:05:02.792Z,88.04
2018-12-12T00:06:02.973Z,87.69
2018-12-12T00:07:02.674Z,87.66
2018-12-12T00:08:02.799Z,87.76
2018-12-12T00:09:02.661Z,87.69
2018-12-12T00:10:02.784Z,87.67
2018-12-12T00:11:02.818Z,87.96
2018-12-12T00:12:02.721Z,87.8
2018-12-12T00:13:02.717Z,88.06
2018-12-12T00:14:02.872Z,87.97
2018-12-12T00:15:02.710Z,88.16
2018-12-12T00:16:02.814Z,88.35
2018-12-12T00:17:02.745Z,88.3
2018-12-12T00:18:02.816Z,88
2018-12-12T00:19:03.488Z,87.98
2018-12-12T00:20:03.165Z,88.09
2018-12-12T00:21:02.653Z,88.31
2018-12-12T00:22:02.676Z,88.2
2018-12-12T00:23:02.920Z,87.94
2018-12-12T00:24:02.996Z,87.88
2018-12-12T00:25:03.122Z,88.18
2018-12-12T00:26:02.837Z,88.08
2018-12-12T00:27:02.692Z,88.01
2018-12-12T00:28:02.949Z,88.08
2018-12-12T00:29:02.793Z,87.83
2018-12-12T00:30:03.448Z,87.82
2018-12-12T00:31:02.649Z,88.02
2018-12-12T00:32:02.817Z,88.19
2018-12-12T00:33:02.766Z,88.1
2018-12-12T00:34:02.930Z,88.06
2018-12-12T00:35:02.830Z,88.24
2018-12-12T00:36:02.756Z,88.24
2018-12-12T00:37:02.659Z,88.42
2018-12-12T00:38:02.620Z,88.28
2018-12-12T00:39:02.851Z,88.24
2018-12-12T00:40:02.858Z,88.22
2018-12-12T00:41:02.878Z,88.34
2018-12-12T00:42:02.630Z,88.27
2018-12-12T00:43:02.698Z,88.18
2018-12-12T00:44:02.752Z,88.11
2018-12-12T00:45:02.753Z,87.97
2018-12-12T00:46:02.593Z,87.97
2018-12-12T00:47:02.752Z,87.8
2018-12-12T00:48:02.846Z,87.94
2018-12-12T00:49:02.659Z,87.85
2018-12-12T00:50:02.868Z,87.79
2018-12-12T00:51:02.785Z,87.86
2018-12-12T00:52:02.855Z,87.81
2018-12-12T00:53:03.218Z,87.93
2018-12-12T00:54:02.766Z,87.9
2018-12-12T00:55:02.623Z,88.05
2018-12-12T00:56:02.794Z,88.09
2018-12-12T00:57:02.754Z,88.16
2018-12-12T00:58:02.655Z,88.1
2018-12-12T00:59:02.854Z,88.18
2018-12-12T01:00:02.845Z,88.42
2018-12-12T01:01:02.761Z,88.36
2018-12-12T01:02:02.771Z,88.31
2018-12-12T01:03:02.893Z,88.13
2018-12-12T01:04:02.643Z,88.22
2018-12-12T01:05:02.826Z,88.09
2018-12-12T01:06:02.867Z,88.09
2018-12-12T01:07:02.787Z,88.2
2018-12-12T01:08:03.159Z,88.24
2018-12-12T01:09:03.012Z,88.19
2018-12-12T01:10:02.860Z,88.55
2018-12-12T01:11:02.846Z,88.5
2018-12-12T01:12:02.793Z,88.38
2018-12-12T01:13:02.902Z,88.27
2018-12-12T01:14:02.881Z,88.27
2018-12-12T01:15:03.429Z,88.36
2018-12-12T01:16:02.732Z,88.35
2018-12-12T01:17:02.841Z,88.27
2018-12-12T01:18:02.679Z,88.41
2018-12-12T01:19:02.721Z,88.47
2018-12-12T01:20:02.611Z,88.33
2018-12-12T01:21:03.371Z,88.41
2018-12-12T01:22:02.774Z,88.47
2018-12-12T01:23:02.629Z,88.49
2018-12-12T01:24:02.992Z,88.56
2018-12-12T01:25:02.691Z,88.78
2018-12-12T01:26:02.729Z,88.58
2018-12-12T01:27:02.687Z,88.54
2018-12-12T01:28:02.817Z,88.48
2018-12-12T01:29:03.033Z,88.51
2018-12-12T01:30:02.814Z,88.48
2018-12-12T01:31:02.568Z,89.01
2018-12-12T01:32:02.628Z,89.26
2018-12-12T01:33:02.692Z,89.41
2018-12-12T01:34:02.679Z,89.12
2018-12-12T01:35:02.579Z,88.94
2018-12-12T01:36:02.606Z,88.9
2018-12-12T01:37:02.640Z,88.98
2018-12-12T01:38:02.618Z,88.93
2018-12-12T01:39:02.628Z,88.68
2018-12-12T01:40:02.714Z,88.78
2018-12-12T01:41:02.582Z,88.8
2018-12-12T01:42:02.560Z,88.67
2018-12-12T01:43:02.571Z,88.64
2018-12-12T01:44:02.733Z,88.66
2018-12-12T01:45:02.592Z,88.68
2018-12-12T01:46:02.573Z,88.5
2018-12-12T01:47:02.600Z,88.42
2018-12-12T01:48:02.612Z,88.44
2018-12-12T01:49:02.613Z,88.56
2018-12-12T01:50:02.725Z,88.48
2018-12-12T01:51:02.561Z,88.67
2018-12-12T01:52:02.619Z,88.6
2018-12-12T01:53:02.591Z,88.58
2018-12-12T01:54:03.029Z,88.57
2018-12-12T01:55:02.618Z,88.51
2018-12-12T01:56:03.344Z,88.65
2018-12-12T01:57:03.368Z,88.51
2018-12-12T01:58:02.878Z,88.6
2018-12-12T01:59:02.882Z,88.62
2018-12-12T02:00:02.703Z,88.59
2018-12-12T02:01:03.362Z,88.61
2018-12-12T02:02:02.876Z,88.58
2018-12-12T02:03:02.561Z,88.49
2018-12-12T02:04:02.520Z,88.42
2018-12-12T02:05:02.712Z,88.5
2018-12-12T02:06:02.623Z,88.65
2018-12-12T02:07:02.910Z,88.85
2018-12-12T02:08:02.509Z,88.75
2018-12-12T02:09:02.549Z,88.77
2018-12-12T02:10:02.856Z,88.82
2018-12-12T02:11:02.496Z,88.83
2018-12-12T02:12:02.553Z,89.02
2018-12-12T02:13:02.565Z,88.83
2018-12-12T02:14:02.701Z,89.03
2018-12-12T02:15:02.948Z,88.86
2018-12-12T02:16:02.802Z,89.08
2018-12-12T02:17:02.589Z,88.99
2018-12-12T02:18:02.796Z,88.79
2018-12-12T02:19:02.739Z,88.78
2018-12-12T02:20:02.703Z,88.92
2018-12-12T02:21:02.561Z,89
2018-12-12T02:22:02.829Z,89.03
2018-12-12T02:23:02.904Z,89.19
2018-12-12T02:24:02.690Z,89.04
2018-12-12T02:25:02.698Z,89.03
2018-12-12T02:26:02.527Z,88.84
2018-12-12T02:27:02.591Z,88.84
2018-12-12T02:28:02.902Z,88.7
2018-12-12T02:29:02.516Z,88.66
2018-12-12T02:30:02.863Z,88.66
2018-12-12T02:31:02.678Z,88.59
2018-12-12T02:32:02.510Z,88.55
2018-12-12T02:33:02.549Z,88.57
2018-12-12T02:34:02.569Z,88.74
2018-12-12T02:35:02.575Z,88.87
2018-12-12T02:36:02.711Z,88.78
2018-12-12T02:37:02.808Z,88.87
2018-12-12T02:38:02.501Z,88.71
2018-12-12T02:39:02.969Z,88.47
2018-12-12T02:40:02.696Z,88.45
2018-12-12T02:41:02.550Z,88.35
2018-12-12T02:42:02.585Z,88.43
2018-12-12T02:43:02.759Z,88.32
2018-12-12T02:44:02.517Z,88.3
2018-12-12T02:45:02.575Z,88.33
2018-12-12T02:46:02.497Z,88.52
2018-12-12T02:47:02.712Z,88.44
2018-12-12T02:48:02.549Z,88.51
2018-12-12T02:49:02.488Z,88.38
2018-12-12T02:50:02.707Z,88.38
2018-12-12T02:51:02.761Z,88.45
2018-12-12T02:52:02.660Z,88.78
2018-12-12T02:53:02.649Z,88.67
2018-12-12T02:54:02.569Z,88.58
2018-12-12T02:55:02.517Z,88.77
2018-12-12T02:56:02.706Z,88.79
2018-12-12T02:57:02.680Z,88.73
2018-12-12T02:58:02.848Z,88.69
2018-12-12T02:59:02.553Z,88.81
2018-12-12T03:00:02.546Z,88.83
2018-12-12T03:01:02.759Z,88.86
2018-12-12T03:02:02.647Z,88.63
2018-12-12T03:03:02.516Z,88.76
2018-12-12T03:04:02.711Z,88.84
2018-12-12T03:05:03.251Z,88.87
2018-12-12T03:06:03.333Z,89.02
2018-12-12T03:07:02.522Z,88.88
2018-12-12T03:08:02.612Z,88.87
2018-12-12T03:09:02.440Z,89.11
2018-12-12T03:10:02.529Z,89.01
2018-12-12T03:11:02.511Z,89.01
2018-12-12T03:12:02.424Z,89.08
2018-12-12T03:13:02.586Z,89.07
2018-12-12T03:14:02.532Z,88.93
2018-12-12T03:15:02.507Z,89.12
2018-12-12T03:16:02.500Z,89.08
2018-12-12T03:17:02.482Z,88.85
2018-12-12T03:18:02.413Z,88.72
2018-12-12T03:19:02.466Z,88.58
2018-12-12T03:20:02.445Z,88.58
2018-12-12T03:21:02.456Z,88.56
2018-12-12T03:22:02.548Z,88.32
2018-12-12T03:23:02.411Z,88.18
2018-12-12T03:24:02.432Z,88.16
2018-12-12T03:25:02.415Z,88.36
2018-12-12T03:26:02.455Z,88.6
2018-12-12T03:27:02.488Z,88.69
2018-12-12T03:28:02.463Z,88.71
2018-12-12T03:29:02.448Z,88.66
2018-12-12T03:30:03.271Z,88.56
2018-12-12T03:31:02.638Z,88.77
2018-12-12T03:32:02.471Z,88.67
2018-12-12T03:33:02.425Z,88.83
2018-12-12T03:34:02.699Z,88.72
2018-12-12T03:35:02.421Z,88.71
2018-12-12T03:36:02.916Z,88.48
2018-12-12T03:37:02.388Z,88.61
2018-12-12T03:38:02.908Z,88.71
2018-12-12T03:39:02.671Z,88.74
2018-12-12T03:40:02.516Z,88.75
2018-12-12T03:41:02.428Z,88.7
2018-12-12T03:42:02.470Z,88.79
2018-12-12T03:43:02.916Z,88.8
2018-12-12T03:44:02.752Z,88.93
2018-12-12T03:45:03.296Z,88.78
2018-12-12T03:46:02.395Z,88.66
2018-12-12T03:47:02.598Z,88.67
2018-12-12T03:48:02.639Z,88.94
2018-12-12T03:49:02.555Z,88.98
2018-12-12T03:50:02.495Z,88.84
2018-12-12T03:51:03.526Z,89
2018-12-12T03:52:02.540Z,89.12
2018-12-12T03:53:02.908Z,89.25
2018-12-12T03:54:02.511Z,89.29
2018-12-12T03:55:02.719Z,89.23
2018-12-12T03:56:02.489Z,89.25
2018-12-12T03:57:02.610Z,89.44
2018-12-12T03:58:02.813Z,89.17
2018-12-12T03:59:02.642Z,88.75
2018-12-12T04:00:02.535Z,88.95
2018-12-12T04:01:02.408Z,89.11
2018-12-12T04:02:02.507Z,89.04
2018-12-12T04:03:02.487Z,88.81
2018-12-12T04:04:02.690Z,89.11
2018-12-12T04:05:02.638Z,89.19
2018-12-12T04:06:02.532Z,89.18
2018-12-12T04:07:02.470Z,89.02
2018-12-12T04:08:02.749Z,89.1
2018-12-12T04:09:02.734Z,88.87
2018-12-12T04:10:02.598Z,88.74
2018-12-12T04:11:02.487Z,88.81
2018-12-12T04:12:02.788Z,88.64
2018-12-12T04:13:02.467Z,88.58
2018-12-12T04:14:02.625Z,88.7
2018-12-12T04:15:02.521Z,89.13
2018-12-12T04:16:02.512Z,89.32
2018-12-12T04:17:02.779Z,89.53
2018-12-12T04:18:02.630Z,89.33
2018-12-12T04:19:02.593Z,89.12
2018-12-12T04:20:02.813Z,89.23
2018-12-12T04:21:02.533Z,89.3
2018-12-12T04:22:02.347Z,89.25
2018-12-12T04:23:02.637Z,89.18
2018-12-12T04:24:02.464Z,88.96
2018-12-12T04:25:02.575Z,88.86
2018-12-12T04:26:02.764Z,88.79
2018-12-12T04:27:02.365Z,88.87
2018-12-12T04:28:02.486Z,88.82
2018-12-12T04:29:02.515Z,89.01
2018-12-12T04:30:02.685Z,88.62
2018-12-12T04:31:02.474Z,88.61
2018-12-12T04:32:02.449Z,88.62
2018-12-12T04:33:02.558Z,88.58
2018-12-12T04:34:03.436Z,88.61
2018-12-12T04:35:02.510Z,88.65
2018-12-12T04:36:02.469Z,88.63
2018-12-12T04:37:02.624Z,88.77
2018-12-12T04:38:02.513Z,88.8
2018-12-12T04:39:02.346Z,89.04
2018-12-12T04:40:02.474Z,88.99
2018-12-12T04:41:02.506Z,88.92
2018-12-12T04:42:02.469Z,88.79
2018-12-12T04:43:02.376Z,88.74
2018-12-12T04:44:02.380Z,89.02
2018-12-12T04:45:02.708Z,88.91
2018-12-12T04:46:05.008Z,88.71
2018-12-12T04:47:03.511Z,88.6
2018-12-12T04:48:02.612Z,88.83
2018-12-12T04:49:02.338Z,89.04
2018-12-12T04:50:02.321Z,88.73
2018-12-12T04:51:02.647Z,88.67
2018-12-12T04:52:02.324Z,89.11
2018-12-12T04:53:02.370Z,89.06
2018-12-12T04:54:02.409Z,89.09
2018-12-12T04:55:02.592Z,89.09
2018-12-12T04:56:02.364Z,89.11
2018-12-12T04:57:02.461Z,88.95
2018-12-12T04:58:03.079Z,88.82
2018-12-12T04:59:02.388Z,88.75
2018-12-12T05:00:02.798Z,88.77
2018-12-12T05:01:02.437Z,88.84
2018-12-12T05:02:02.656Z,88.83
2018-12-12T05:03:02.829Z,88.72
2018-12-12T05:04:02.240Z,88.53
2018-12-12T05:05:02.353Z,88.45
2018-12-12T05:06:02.413Z,88.51
2018-12-12T05:07:02.329Z,88.49
2018-12-12T05:08:02.234Z,88.54
2018-12-12T05:09:02.255Z,88.58
2018-12-12T05:10:02.262Z,88.63
2018-12-12T05:11:02.434Z,88.64
2018-12-12T05:12:03.081Z,88.64
2018-12-12T05:13:03.656Z,88.63
2018-12-12T05:14:02.557Z,89.06
2018-12-12T05:15:02.509Z,88.76
2018-12-12T05:16:02.439Z,88.8
2018-12-12T05:17:02.508Z,88.74
2018-12-12T05:18:02.478Z,88.62
2018-12-12T05:19:02.313Z,88.6
2018-12-12T05:20:02.321Z,88.74
2018-12-12T05:21:02.290Z,88.74
2018-12-12T05:22:02.258Z,88.89
2018-12-12T05:23:02.421Z,88.8
2018-12-12T05:24:02.447Z,88.56
2018-12-12T05:25:02.374Z,88.59
2018-12-12T05:26:02.276Z,88.57
2018-12-12T05:27:02.370Z,88.45
2018-12-12T05:28:02.295Z,88.47
2018-12-12T05:29:02.388Z,88.63
2018-12-12T05:30:02.288Z,88.68
2018-12-12T05:31:02.461Z,88.62
2018-12-12T05:32:02.318Z,88.89
2018-12-12T05:33:02.276Z,88.84
2018-12-12T05:34:02.304Z,89.14
2018-12-12T05:35:02.708Z,88.85
2018-12-12T05:36:02.348Z,89.25
2018-12-12T05:37:02.488Z,89.43
2018-12-12T05:38:02.419Z,89.26
2018-12-12T05:39:02.470Z,89.21
2018-12-12T05:40:02.320Z,89.13
2018-12-12T05:41:02.320Z,89.08
2018-12-12T05:42:02.667Z,88.98
2018-12-12T05:43:02.429Z,88.98
2018-12-12T05:44:02.233Z,88.94
2018-12-12T05:45:02.648Z,88.86
2018-12-12T05:46:02.213Z,89.03
2018-12-12T05:47:02.433Z,89.01
2018-12-12T05:48:02.218Z,88.98
2018-12-12T05:49:02.282Z,88.87
2018-12-12T05:50:02.286Z,88.89
2018-12-12T05:51:02.340Z,89.06
2018-12-12T05:52:02.199Z,89.02
2018-12-12T05:53:02.208Z,88.84
2018-12-12T05:54:02.215Z,89.25
2018-12-12T05:55:02.455Z,89.05
2018-12-12T05:56:02.872Z,89.05
2018-12-12T05:57:02.441Z,88.86
2018-12-12T05:58:02.182Z,88.84
2018-12-12T05:59:02.207Z,88.99
2018-12-12T06:00:02.249Z,89.05
2018-12-12T06:01:02.207Z,88.99
2018-12-12T06:02:02.315Z,88.99
2018-12-12T06:03:02.206Z,89.07
2018-12-12T06:04:02.390Z,89.15
2018-12-12T06:05:02.544Z,89.33
2018-12-12T06:06:02.261Z,89.29
2018-12-12T06:07:02.307Z,89.32
2018-12-12T06:08:02.598Z,89.38
2018-12-12T06:09:02.170Z,89.31
2018-12-12T06:10:02.270Z,89.58
2018-12-12T06:11:02.259Z,89.91
2018-12-12T06:12:02.424Z,90.27
2018-12-12T06:13:02.326Z,90.18
2018-12-12T06:14:02.279Z,89.8
2018-12-12T06:15:02.183Z,89.41
2018-12-12T06:16:02.331Z,89.35
2018-12-12T06:17:02.436Z,89.26
2018-12-12T06:18:02.656Z,89.37
2018-12-12T06:19:02.278Z,89.3
2018-12-12T06:20:02.562Z,89.41
2018-12-12T06:21:03.025Z,89.43
2018-12-12T06:22:08.096Z,89.43
2018-12-12T06:23:02.374Z,89.15
2018-12-12T06:24:02.461Z,89.02
2018-12-12T06:25:02.781Z,89.13
2018-12-12T06:26:02.165Z,89.15
2018-12-12T06:27:02.354Z,89.31
2018-12-12T06:28:02.327Z,89.32
2018-12-12T06:29:02.164Z,89.17
2018-12-12T06:30:02.416Z,88.94
2018-12-12T06:31:02.265Z,88.83
2018-12-12T06:32:02.139Z,88.67
2018-12-12T06:33:02.142Z,88.63
2018-12-12T06:34:02.211Z,88.66
2018-12-12T06:35:02.174Z,88.65
2018-12-12T06:36:02.673Z,88.76
2018-12-12T06:37:02.255Z,88.71
2018-12-12T06:38:02.375Z,88.69
2018-12-12T06:39:02.231Z,88.73
2018-12-12T06:40:02.260Z,88.93
2018-12-12T06:41:02.415Z,88.78
2018-12-12T06:42:02.273Z,88.63
2018-12-12T06:43:02.273Z,88.6
2018-12-12T06:44:02.221Z,88.6
2018-12-12T06:45:02.331Z,88.54
2018-12-12T06:46:02.245Z,88.55
2018-12-12T06:47:02.166Z,88.53
2018-12-12T06:48:02.264Z,88.67
2018-12-12T06:49:02.307Z,88.62
2018-12-12T06:50:02.206Z,88.49
2018-12-12T06:51:02.163Z,88.42
2018-12-12T06:52:02.236Z,88.06
2018-12-12T06:53:02.233Z,87.99
2018-12-12T06:54:05.288Z,88.08
2018-12-12T06:55:02.289Z,88.16
2018-12-12T06:56:02.189Z,88.23
2018-12-12T06:57:02.131Z,88.26
2018-12-12T06:58:02.384Z,88.19
2018-12-12T06:59:02.517Z,88.08
2018-12-12T07:00:02.182Z,88.01
2018-12-12T07:01:02.397Z,88.18
2018-12-12T07:02:02.269Z,88.26
2018-12-12T07:03:02.349Z,88.44
2018-12-12T07:04:02.160Z,88.41
2018-12-12T07:05:02.138Z,88.44
2018-12-12T07:06:02.111Z,88.33
2018-12-12T07:07:02.412Z,88.28
2018-12-12T07:08:02.373Z,88.3
2018-12-12T07:09:02.283Z,88.21
2018-12-12T07:10:02.250Z,88.27
2018-12-12T07:11:02.414Z,88.21
2018-12-12T07:12:02.129Z,88.12
2018-12-12T07:13:02.438Z,88.27
2018-12-12T07:14:02.314Z,88.37
2018-12-12T07:15:02.104Z,88.21
2018-12-12T07:16:02.231Z,88.19
2018-12-12T07:17:02.447Z,88.28
2018-12-12T07:18:02.230Z,88.23
2018-12-12T07:19:02.105Z,88.24
2018-12-12T07:20:02.196Z,88.33
2018-12-12T07:21:02.490Z,88.32
2018-12-12T07:22:02.671Z,88.3
2018-12-12T07:23:02.074Z,88.28
2018-12-12T07:24:02.086Z,88.24
2018-12-12T07:25:02.158Z,88.24
2018-12-12T07:26:02.367Z,88.28
2018-12-12T07:27:02.117Z,88.44
2018-12-12T07:28:02.675Z,88.39
2018-12-12T07:29:02.383Z,88.42
2018-12-12T07:30:02.264Z,88.56
2018-12-12T07:31:02.152Z,88.47
2018-12-12T07:32:02.261Z,88.37
2018-12-12T07:33:02.387Z,88.29
2018-12-12T07:34:02.270Z,88.17
2018-12-12T07:35:02.084Z,88.25
2018-12-12T07:36:02.383Z,88.17
2018-12-12T07:37:02.930Z,88.41
2018-12-12T07:38:02.132Z,88.55
2018-12-12T07:39:02.200Z,88.59
2018-12-12T07:40:02.524Z,88.64
2018-12-12T07:41:02.068Z,88.76
2018-12-12T07:42:02.184Z,88.88
2018-12-12T07:43:02.037Z,89.12
2018-12-12T07:44:02.170Z,89
2018-12-12T07:45:02.157Z,88.82
2018-12-12T07:46:02.516Z,89.01
2018-12-12T07:47:02.860Z,89.24
2018-12-12T07:48:02.014Z,89.43
2018-12-12T07:49:02.907Z,89.77
2018-12-12T07:50:02.246Z,89.92
2018-12-12T07:51:02.433Z,89.7
2018-12-12T07:52:02.148Z,89.76
2018-12-12T07:53:02.526Z,89.63
2018-12-12T07:54:02.198Z,89.98
2018-12-12T07:55:02.105Z,90.29
2018-12-12T07:56:02.408Z,90.38
2018-12-12T07:57:02.170Z,90.65
2018-12-12T07:58:02.048Z,90.57
2018-12-12T07:59:02.234Z,90.47
2018-12-12T08:00:02.457Z,90.78
2018-12-12T08:01:02.886Z,90.53
2018-12-12T08:02:02.330Z,90.54
2018-12-12T08:03:06.784Z,90.69
2018-12-12T08:04:02.190Z,90.9
2018-12-12T08:05:02.454Z,91.08
2018-12-12T08:06:02.084Z,90.89
2018-12-12T08:07:02.162Z,90.58
2018-12-12T08:08:02.220Z,90.52
2018-12-12T08:09:02.044Z,90.54
2018-12-12T08:10:02.080Z,90.29
2018-12-12T08:11:02.203Z,90.33
2018-12-12T08:12:02.073Z,90.3
2018-12-12T08:13:02.339Z,90.74
2018-12-12T08:14:02.154Z,90.66
2018-12-12T08:15:02.632Z,90.57
2018-12-12T08:16:02.599Z,90.74
2018-12-12T08:17:01.998Z,90.54
2018-12-12T08:18:03.705Z,90.67
2018-12-12T08:19:02.348Z,90.58
2018-12-12T08:20:02.145Z,90.42
2018-12-12T08:21:02.001Z,90.44
2018-12-12T08:22:02.349Z,90.35
2018-12-12T08:23:02.373Z,90.18
2018-12-12T08:24:02.838Z,90.07
2018-12-12T08:25:02.230Z,90.03
2018-12-12T08:26:02.233Z,90.06
2018-12-12T08:27:02.046Z,89.92
2018-12-12T08:28:02.380Z,89.83
2018-12-12T08:29:02.016Z,89.76
2018-12-12T08:30:02.476Z,89.7
2018-12-12T08:31:02.543Z,89.76
2018-12-12T08:32:02.297Z,89.7
2018-12-12T08:33:02.019Z,89.7
2018-12-12T08:34:02.009Z,89.7
2018-12-12T08:35:02.064Z,89.63
2018-12-12T08:36:02.077Z,89.54
2018-12-12T08:37:02.558Z,89.43
2018-12-12T08:38:01.968Z,89.48
2018-12-12T08:39:02.508Z,89.49
2018-12-12T08:40:02.104Z,89.57
2018-12-12T08:41:02.505Z,89.54
2018-12-12T08:42:02.055Z,89.35
2018-12-12T08:43:02.808Z,89.18
2018-12-12T08:44:02.118Z,89.25
2018-12-12T08:45:02.057Z,89.35
2018-12-12T08:46:02.074Z,89.3
2018-12-12T08:47:02.100Z,89.43
2018-12-12T08:48:02.292Z,89.4
2018-12-12T08:49:02.013Z,89.3
2018-12-12T08:50:02.189Z,89.14
2018-12-12T08:51:02.076Z,89.18
2018-12-12T08:52:02.017Z,89.3
2018-12-12T08:53:02.130Z,89.36
2018-12-12T08:54:02.256Z,89.36
2018-12-12T08:55:02.793Z,89.36
2018-12-12T08:56:03.457Z,89.28
2018-12-12T08:57:02.245Z,89.23
2018-12-12T08:58:02.073Z,89.14
2018-12-12T08:59:02.150Z,89.12
2018-12-12T09:00:02.122Z,89.16
2018-12-12T09:01:02.291Z,89.15
2018-12-12T09:02:02.133Z,89.11
2018-12-12T09:03:03.492Z,89.02
2018-12-12T09:04:02.225Z,88.94
2018-12-12T09:05:02.171Z,89.19
2018-12-12T09:06:02.007Z,89.17
2018-12-12T09:07:01.978Z,89.2
2018-12-12T09:08:02.237Z,89.07
2018-12-12T09:09:02.006Z,89.08
2018-12-12T09:10:02.015Z,89.2
2018-12-12T09:11:02.098Z,89.22
2018-12-12T09:12:02.507Z,89.3
2018-12-12T09:13:02.798Z,89.27
2018-12-12T09:14:02.161Z,89.12
2018-12-12T09:15:02.154Z,89.25
2018-12-12T09:16:02.158Z,89.07
2018-12-12T09:17:02.181Z,89.46
2018-12-12T09:18:02.307Z,89.57
2018-12-12T09:19:02.081Z,89.52
2018-12-12T09:20:02.320Z,89.28
2018-12-12T09:21:02.165Z,89.4
2018-12-12T09:22:01.907Z,89
2018-12-12T09:23:01.997Z,89.11
2018-12-12T09:24:02.089Z,88.98
2018-12-12T09:25:02.307Z,88.99
2018-12-12T09:26:02.286Z,89.1
2018-12-12T09:27:02.073Z,88.9
2018-12-12T09:28:02.123Z,88.82
2018-12-12T09:29:02.284Z,89.27
2018-12-12T09:30:02.323Z,89.13
2018-12-12T09:31:02.025Z,89.36
2018-12-12T09:32:01.998Z,89.07
2018-12-12T09:33:02.226Z,89.26
2018-12-12T09:34:02.213Z,89.16
2018-12-12T09:35:01.956Z,89.27
2018-12-12T09:36:02.124Z,89.21
2018-12-12T09:37:02.239Z,89.43
2018-12-12T09:38:02.128Z,89.82
2018-12-12T09:39:02.301Z,89.87
2018-12-12T09:40:01.988Z,89.66
2018-12-12T09:41:01.961Z,89.31
2018-12-12T09:42:02.274Z,89.16
2018-12-12T09:43:02.176Z,89.2
2018-12-12T09:44:02.065Z,89.51
2018-12-12T09:45:02.108Z,89.77
2018-12-12T09:46:02.029Z,90.08
2018-12-12T09:47:02.293Z,89.86
2018-12-12T09:48:02.318Z,89.99
2018-12-12T09:49:02.046Z,89.89
2018-12-12T09:50:02.069Z,89.86
2018-12-12T09:51:07.733Z,89.89
2018-12-12T09:52:01.991Z,90.02
2018-12-12T09:53:02.006Z,90.15
2018-12-12T09:54:01.882Z,90.37
2018-12-12T09:55:02.161Z,90.39
2018-12-12T09:56:02.298Z,90.53
2018-12-12T09:57:02.143Z,90.54
2018-12-12T09:58:01.940Z,90.44
2018-12-12T09:59:01.981Z,90.52
2018-12-12T10:00:01.988Z,90.27
2018-12-12T10:01:01.878Z,90.16
2018-12-12T10:02:02.075Z,90.25
2018-12-12T10:03:02.008Z,90.22
2018-12-12T10:04:01.817Z,90.33
2018-12-12T10:05:02.183Z,90.31
2018-12-12T10:06:02.013Z,90.03
2018-12-12T10:07:01.869Z,90.16
2018-12-12T10:08:01.884Z,89.61
2018-12-12T10:09:01.816Z,89.79
2018-12-12T10:10:01.998Z,89.75
2018-12-12T10:11:02.026Z,89.74
2018-12-12T10:12:02.171Z,89.41
2018-12-12T10:13:02.000Z,89.37
2018-12-12T10:14:01.817Z,89.46
2018-12-12T10:15:01.888Z,89.64
2018-12-12T10:16:01.859Z,89.36
2018-12-12T10:17:02.046Z,89.65
2018-12-12T10:18:02.208Z,89.9
2018-12-12T10:19:02.035Z,89.63
2018-12-12T10:20:02.196Z,89.59
2018-12-12T10:21:02.222Z,89.73
2018-12-12T10:22:02.247Z,89.71
2018-12-12T10:23:01.981Z,90.01
2018-12-12T10:24:02.264Z,89.9
2018-12-12T10:25:02.094Z,89.86
2018-12-12T10:26:02.398Z,89.62
2018-12-12T10:27:02.174Z,89.55
2018-12-12T10:28:02.001Z,89.36
2018-12-12T10:29:02.639Z,89.66
2018-12-12T10:30:02.048Z,89.79
2018-12-12T10:31:01.996Z,89.57
2018-12-12T10:32:01.863Z,89.3
2018-12-12T10:33:02.159Z,89.4
2018-12-12T10:34:02.669Z,89.41
2018-12-12T10:35:02.012Z,89.42
2018-12-12T10:36:02.097Z,89.5
2018-12-12T10:37:01.838Z,89.95
2018-12-12T10:38:02.635Z,89.84
2018-12-12T10:39:02.035Z,89.72
2018-12-12T10:40:02.317Z,89.72
2018-12-12T10:41:02.335Z,89.45
2018-12-12T10:42:02.135Z,89.43
2018-12-12T10:43:01.823Z,89.44
2018-12-12T10:44:01.841Z,89.54
2018-12-12T10:45:02.213Z,89.24
2018-12-12T10:46:02.357Z,89.44
2018-12-12T10:47:01.925Z,89.67
2018-12-12T10:48:01.947Z,89.39
2018-12-12T10:49:02.063Z,88.98
2018-12-12T10:50:01.999Z,89.05
2018-12-12T10:51:01.762Z,88.83
2018-12-12T10:52:01.796Z,88.8
2018-12-12T10:53:02.213Z,88.84
2018-12-12T10:54:02.284Z,89.05
2018-12-12T10:55:02.047Z,89.24
2018-12-12T10:56:02.263Z,89.02
2018-12-12T10:57:02.084Z,89.26
2018-12-12T10:58:02.418Z,89.22
2018-12-12T10:59:01.786Z,88.87
2018-12-12T11:00:02.054Z,88.97
2018-12-12T11:01:02.022Z,89.02
2018-12-12T11:02:01.807Z,89.06
2018-12-12T11:03:02.158Z,89.25
2018-12-12T11:04:02.030Z,89.17
2018-12-12T11:05:01.831Z,88.89
2018-12-12T11:06:02.057Z,88.43
2018-12-12T11:07:02.214Z,88.42
2018-12-12T11:08:02.075Z,89.05
2018-12-12T11:09:01.751Z,88.56
2018-12-12T11:10:01.846Z,88.5
2018-12-12T11:11:02.053Z,88.31
2018-12-12T11:12:02.227Z,87.43
2018-12-12T11:13:02.118Z,87.67
2018-12-12T11:14:01.765Z,87.27
2018-12-12T11:15:01.837Z,87.81
2018-12-12T11:16:01.728Z,87.65
2018-12-12T11:17:02.189Z,86.96
2018-12-12T11:18:02.063Z,87.54
2018-12-12T11:19:02.528Z,87.51
2018-12-12T11:20:02.011Z,87.46
2018-12-12T11:21:03.650Z,87.66
2018-12-12T11:22:13.927Z,87.22
2018-12-12T11:23:01.917Z,87.19
2018-12-12T11:24:04.512Z,87.7
2018-12-12T11:25:02.008Z,87.36
2018-12-12T11:26:01.999Z,87.53
2018-12-12T11:27:01.821Z,87.37
2018-12-12T11:28:01.737Z,87.32
2018-12-12T11:29:01.873Z,87.08
2018-12-12T11:30:01.752Z,87.45
2018-12-12T11:31:02.077Z,86.87
2018-12-12T11:32:01.776Z,87.35
2018-12-12T11:33:03.036Z,86.69
2018-12-12T11:34:01.757Z,86.53
2018-12-12T11:35:02.585Z,87.11
2018-12-12T11:36:01.757Z,86.65
2018-12-12T11:37:01.712Z,86.83
2018-12-12T11:38:01.789Z,86.12
2018-12-12T11:39:01.753Z,85.98
2018-12-12T11:40:02.098Z,85.63
2018-12-12T11:41:01.989Z,84.53
2018-12-12T11:42:01.716Z,85.31
2018-12-12T11:43:02.428Z,85.36
2018-12-12T11:44:01.712Z,85.37
2018-12-12T11:45:01.880Z,84.97
2018-12-12T11:46:01.852Z,84.87
2018-12-12T11:47:01.693Z,84.96
2018-12-12T11:48:01.714Z,85.13
2018-12-12T11:49:01.737Z,84.93
2018-12-12T11:50:02.189Z,85.17
2018-12-12T11:51:02.069Z,84.48
2018-12-12T11:52:01.782Z,84.67
2018-12-12T11:53:02.668Z,84.7
2018-12-12T11:54:01.702Z,85.16
2018-12-12T11:55:01.807Z,85.52
2018-12-12T11:56:01.865Z,85
2018-12-12T11:57:01.672Z,84.97
2018-12-12T11:58:02.025Z,85.44
2018-12-12T11:59:02.519Z,84.06
2018-12-12T12:00:02.190Z,83.7
2018-12-12T12:01:01.791Z,84.95
2018-12-12T12:02:01.849Z,85.44
2018-12-12T12:03:01.755Z,85.68
2018-12-12T12:04:01.723Z,84.92
2018-12-12T12:05:01.922Z,85.39
2018-12-12T12:06:02.096Z,85.52
2018-12-12T12:07:01.792Z,85.48
2018-12-12T12:08:01.823Z,84.89
2018-12-12T12:09:02.005Z,85.14
2018-12-12T12:10:01.933Z,84.72
2018-12-12T12:11:01.751Z,85.1
2018-12-12T12:12:01.933Z,85.01
2018-12-12T12:13:02.488Z,84.47
2018-12-12T12:14:02.195Z,84.27
2018-12-12T12:15:01.746Z,84.43
2018-12-12T12:16:01.759Z,84.89
2018-12-12T12:17:01.669Z,85.3
2018-12-12T12:18:01.832Z,85.27
2018-12-12T12:19:01.717Z,84.8
2018-12-12T12:20:01.766Z,84.7
2018-12-12T12:21:01.936Z,84.64
2018-12-12T12:22:01.818Z,84.55
2018-12-12T12:23:01.779Z,84.65
2018-12-12T12:24:01.736Z,84.28
2018-12-12T12:25:01.671Z,84.21
2018-12-12T12:26:01.862Z,84.13
2018-12-12T12:27:01.730Z,83.92
2018-12-12T12:28:01.758Z,83.78
2018-12-12T12:29:02.021Z,83.63
2018-12-12T12:30:01.898Z,83.67
2018-12-12T12:31:01.673Z,83.94
2018-12-12T12:32:01.812Z,84.15
2018-12-12T12:33:01.907Z,84.19
2018-12-12T12:34:03.613Z,84.6
2018-12-12T12:35:01.686Z,84.54
2018-12-12T12:36:01.677Z,84.58
2018-12-12T12:37:02.517Z,84.58
2018-12-12T12:38:01.787Z,84.75
2018-12-12T12:39:01.778Z,84.58
2018-12-12T12:40:01.682Z,84.81
2018-12-12T12:41:01.653Z,84.78
2018-12-12T12:42:01.712Z,84.75
2018-12-12T12:43:01.621Z,84.98
2018-12-12T12:44:01.882Z,84.81
2018-12-12T12:45:01.632Z,84.74
2018-12-12T12:46:01.982Z,84.67
2018-12-12T12:47:01.614Z,84.76
2018-12-12T12:48:01.820Z,84.55
2018-12-12T12:49:01.812Z,84.44
2018-12-12T12:50:01.859Z,84.58
2018-12-12T12:51:02.592Z,84.78
2018-12-12T12:52:01.630Z,84.16
2018-12-12T12:53:02.334Z,84.52
2018-12-12T12:54:01.862Z,84.03
2018-12-12T12:55:01.702Z,84.32